Time;durP1;ratioP1;P1;durP2;ratioP2;P2;SDS_P1;SDS_P2;PMS_P1;PMS_P2;Temp;Humidity;BMP_temperature;BMP_pressure;BME280_temperature;BME280_humidity;BME280_pressure;Samples;Min_cycle;Max_cycle;Signal;HPM_P1;HPM_P2
2023/09/09 00:01:18;;;;;;;;;;;;;;;;;;5092073;28;19920;-78
2023/09/09 00:03:44;;;;;;;;;;;;;;;;;;5074854;28;19919;-80
2023/09/09 00:06:10;;;;;;;;;;;;;;;;;;5082483;28;20474;-79
2023/09/09 00:08:35;;;;;;;;;;;;;;;;;;5083393;28;19912;-79
2023/09/09 00:11:01;;;;;;;;;;;;;;;;;;5079916;28;19958;-80
2023/09/09 00:13:29;;;;;;;;;;;;;;;;;;5077131;28;19927;-81
2023/09/09 00:15:55;;;;;;;;;;;;;;;;;;5077261;28;19951;-78
2023/09/09 00:18:21;;;;;;;;;;;;;;;;;;5083539;28;20393;-79
2023/09/09 00:20:47;;;;;;;;;;;;;;;;;;5081376;28;19952;-80
2023/09/09 00:23:12;;;;;;;;;;;;;;;;;;5077350;28;20030;-79
2023/09/09 00:25:38;;;;;;;;;;;;;;;;;;5083155;28;19926;-79
2023/09/09 00:28:04;;;;;;;;;;;;;;;;;;5070307;28;19932;-81
2023/09/09 00:30:30;;;;;;;;;;;;;;;;;;5082452;28;19947;-80
2023/09/09 00:32:56;;;;;;;;;;;;;;;;;;5088192;28;19939;-79
2023/09/09 00:35:22;;;;;;;;;;;;;;;;;;5085286;28;19912;-80
2023/09/09 00:37:48;;;;;;;;;;;;;;;;;;5077875;28;19916;-79
2023/09/09 00:40:14;;;;;;;;;;;;;;;;;;5087542;28;19970;-80
2023/09/09 00:42:40;;;;;;;;;;;;;;;;;;5079682;28;20038;-80
2023/09/09 00:45:05;;;;;;;;;;;;;;;;;;5076649;28;19908;-81
2023/09/09 00:47:31;;;;;;;;;;;;;;;;;;5090119;28;20411;-80
2023/09/09 00:49:57;;;;;;;;;;;;;;;;;;5071584;28;19916;-80
2023/09/09 00:52:23;;;;;;;;;;;;;;;;;;5082735;28;20302;-79
2023/09/09 00:54:49;;;;;;;;;;;;;;;;;;5078606;28;19912;-80
2023/09/09 00:57:15;;;;;;;;;;;;;;;;;;5078271;28;19913;-80
2023/09/09 00:59:41;;;;;;;;;;;;;;;;;;5093347;28;20356;-79
2023/09/09 01:02:07;;;;;;;;;;;;;;;;;;5100494;28;19912;-80
2023/09/09 01:04:33;;;;;;;;;;;;;;;;;;5083578;28;20308;-80
2023/09/09 01:06:59;;;;;;;;;;;;;;;;;;5068086;28;20380;-80
2023/09/09 01:09:24;;;;;;;;;;;;;;;;;;5083573;28;19916;-80
2023/09/09 01:11:50;;;;;;;;;;;;;;;;;;5076516;28;19920;-80
2023/09/09 01:14:16;;;;;;;;;;;;;;;;;;5074507;28;19918;-80
2023/09/09 01:16:42;;;;;;;;;;;;;;;;;;5090102;28;19962;-79
2023/09/09 01:19:08;;;;;;;;;;;;;;;;;;5081058;28;19912;-80
2023/09/09 01:21:34;;;;;;;;;;;;;;;;;;5065326;28;20054;-80
2023/09/09 01:24:00;;;;;;;;;;;;;;;;;;5086441;28;19951;-80
2023/09/09 01:26:26;;;;;;;;;;;;;;;;;;5098761;28;19912;-80
2023/09/09 01:28:52;;;;;;;;;;;;;;;;;;5097061;28;19965;-81
2023/09/09 01:31:18;;;;;;;;;;;;;;;;;;5095795;28;19913;-79
2023/09/09 01:33:44;;;;;;;;;;;;;;;;;;5090989;28;19946;-81
2023/09/09 01:36:11;;;;;;;;;;;;;;;;;;5090797;28;20278;-81
2023/09/09 01:38:37;;;;;;;;;;;;;;;;;;5074170;28;19912;-80
2023/09/09 01:41:03;;;;;;;;;;;;;;;;;;5069404;28;19924;-79
2023/09/09 01:43:29;;;;;;;;;;;;;;;;;;5084984;28;20395;-80
2023/09/09 01:45:55;;;;;;;;;;;;;;;;;;5086661;28;19963;-81
2023/09/09 01:48:21;;;;;;;;;;;;;;;;;;5086046;28;19963;-79
2023/09/09 01:50:47;;;;;;;;;;;;;;;;;;5068126;28;19920;-79
2023/09/09 01:53:13;;;;;;;;;;;;;;;;;;5074228;28;20205;-79
2023/09/09 01:55:39;;;;;;;;;;;;;;;;;;5074443;28;19916;-78
2023/09/09 01:58:05;;;;;;;;;;;;;;;;;;5085582;28;19912;-79
2023/09/09 02:00:31;;;;;;;;;;;;;;;;;;5101471;28;20007;-78
2023/09/09 02:02:57;;;;;;;;;;;;;;;;;;5105859;28;20656;-79
2023/09/09 02:05:22;;;;;;;;;;;;;;;;;;5098473;28;20231;-78
2023/09/09 02:07:48;;;;;;;;;;;;;;;;;;5091046;28;19942;-79
2023/09/09 02:10:14;;;;;;;;;;;;;;;;;;5075311;28;19915;-78
2023/09/09 02:12:40;;;;;;;;;;;;;;;;;;5074398;28;19919;-79
2023/09/09 02:15:06;;;;;;;;;;;;;;;;;;5097920;28;19947;-79
2023/09/09 02:17:36;;;;;;;;;;;;;;;;;;5075653;28;20422;-79
2023/09/09 02:20:02;;;;;;;;;;;;;;;;;;5086150;28;19912;-79
2023/09/09 02:22:28;;;;;;;;;;;;;;;;;;5092412;28;20393;-78
2023/09/09 02:24:55;;;;;;;;;;;;;;;;;;5087726;28;20313;-78
2023/09/09 02:27:21;;;;;;;;;;;;;;;;;;5085568;28;19913;-78
2023/09/09 02:29:47;;;;;;;;;;;;;;;;;;5094122;28;19909;-79
2023/09/09 02:32:13;;;;;;;;;;;;;;;;;;5089076;28;19912;-79
2023/09/09 02:34:39;;;;;;;;;;;;;;;;;;5081979;28;20349;-79
2023/09/09 02:37:04;;;;;;;;;;;;;;;;;;5094117;28;19963;-79
2023/09/09 02:39:30;;;;;;;;;;;;;;;;;;5085681;28;20037;-79
2023/09/09 02:41:56;;;;;;;;;;;;;;;;;;5084307;28;20292;-78
2023/09/09 02:44:24;;;;;;;;;;;;;;;;;;5092916;28;19916;-79
2023/09/09 02:46:50;;;;;;;;;;;;;;;;;;5084974;28;19992;-79
2023/09/09 02:49:16;;;;;;;;;;;;;;;;;;5074389;28;19908;-79
2023/09/09 02:51:41;;;;;;;;;;;;;;;;;;5089573;28;19912;-78
2023/09/09 02:54:07;;;;;;;;;;;;;;;;;;5081616;28;20342;-78
2023/09/09 02:56:33;;;;;;;;;;;;;;;;;;5089511;28;19954;-79
2023/09/09 02:58:59;;;;;;;;;;;;;;;;;;5104099;28;20560;-78
2023/09/09 03:01:25;;;;;;;;;;;;;;;;;;5093842;28;20573;-79
2023/09/09 03:03:51;;;;;;;;;;;;;;;;;;5073321;28;19912;-79
2023/09/09 03:06:17;;;;;;;;;;;;;;;;;;5075860;28;19909;-77
2023/09/09 03:08:44;;;;;;;;;;;;;;;;;;5073764;28;19913;-79
2023/09/09 03:11:10;;;;;;;;;;;;;;;;;;5073934;28;19915;-77
2023/09/09 03:13:36;;;;;;;;;;;;;;;;;;5068529;28;19950;-78
2023/09/09 03:16:01;;;;;;;;;;;;;;;;;;5072397;28;20401;-78
2023/09/09 03:18:27;;;;;;;;;;;;;;;;;;5090824;28;19915;-77
2023/09/09 03:20:53;;;;;;;;;;;;;;;;;;5073864;28;19912;-77
2023/09/09 03:23:19;;;;;;;;;;;;;;;;;;5089502;28;19908;-78
2023/09/09 03:25:45;;;;;;;;;;;;;;;;;;5067542;28;20371;-77
2023/09/09 03:28:11;;;;;;;;;;;;;;;;;;5083367;28;19908;-77
2023/09/09 03:30:37;;;;;;;;;;;;;;;;;;5082964;28;19912;-77
2023/09/09 03:33:03;;;;;;;;;;;;;;;;;;5082623;28;20053;-77
2023/09/09 03:35:29;;;;;;;;;;;;;;;;;;5079225;28;19955;-77
2023/09/09 03:37:54;;;;;;;;;;;;;;;;;;5074760;28;19908;-78
2023/09/09 03:40:20;;;;;;;;;;;;;;;;;;5066017;28;19912;-78
2023/09/09 03:42:46;;;;;;;;;;;;;;;;;;5072867;28;20370;-77
2023/09/09 03:45:12;;;;;;;;;;;;;;;;;;5064280;28;19916;-78
2023/09/09 03:47:38;;;;;;;;;;;;;;;;;;5080605;28;19908;-77
2023/09/09 03:50:05;;;;;;;;;;;;;;;;;;5087899;28;20079;-77
2023/09/09 03:52:31;;;;;;;;;;;;;;;;;;5062735;28;19913;-78
2023/09/09 03:54:56;;;;;;;;;;;;;;;;;;5071732;28;19919;-77
2023/09/09 03:57:22;;;;;;;;;;;;;;;;;;5071764;28;20352;-78
2023/09/09 03:59:48;;;;;;;;;;;;;;;;;;5063063;28;19919;-78
2023/09/09 04:02:14;;;;;;;;;;;;;;;;;;5078146;28;19930;-77
2023/09/09 04:04:40;;;;;;;;;;;;;;;;;;5071217;28;20380;-78
2023/09/09 04:07:06;;;;;;;;;;;;;;;;;;5063058;28;19916;-77
2023/09/09 04:09:40;;;;;;;;;;;;;;;;;;5063328;28;19908;-78
2023/09/09 04:12:06;;;;;;;;;;;;;;;;;;5065829;28;20335;-78
2023/09/09 04:14:31;;;;;;;;;;;;;;;;;;5076858;28;19946;-78
2023/09/09 04:16:57;;;;;;;;;;;;;;;;;;5065024;28;19920;-77
2023/09/09 04:19:23;;;;;;;;;;;;;;;;;;5069315;28;20280;-78
2023/09/09 04:21:51;;;;;;;;;;;;;;;;;;5062589;28;19917;-79
2023/09/09 04:24:17;;;;;;;;;;;;;;;;;;5063047;28;19958;-78
2023/09/09 04:26:43;;;;;;;;;;;;;;;;;;5085552;28;19935;-78
2023/09/09 04:29:09;;;;;;;;;;;;;;;;;;5087364;28;19912;-78
2023/09/09 04:31:34;;;;;;;;;;;;;;;;;;5085339;28;19999;-77
2023/09/09 04:34:00;;;;;;;;;;;;;;;;;;5066040;28;19913;-77
2023/09/09 04:36:26;;;;;;;;;;;;;;;;;;5069407;28;19912;-78
2023/09/09 04:38:52;;;;;;;;;;;;;;;;;;5064359;28;20006;-79
2023/09/09 04:41:18;;;;;;;;;;;;;;;;;;5085073;28;19997;-79
2023/09/09 04:43:44;;;;;;;;;;;;;;;;;;5062994;28;20301;-79
2023/09/09 04:46:10;;;;;;;;;;;;;;;;;;5071488;28;19969;-79
2023/09/09 04:48:36;;;;;;;;;;;;;;;;;;5078562;28;19909;-79
2023/09/09 04:51:02;;;;;;;;;;;;;;;;;;5086682;28;20380;-79
2023/09/09 04:53:28;;;;;;;;;;;;;;;;;;5089450;28;19912;-79
2023/09/09 04:55:54;;;;;;;;;;;;;;;;;;5072070;28;19984;-80
2023/09/09 04:58:20;;;;;;;;;;;;;;;;;;5091025;28;19957;-79
2023/09/09 05:00:46;;;;;;;;;;;;;;;;;;5076200;28;19919;-78
2023/09/09 05:03:12;;;;;;;;;;;;;;;;;;5088285;28;20287;-79
2023/09/09 05:05:38;;;;;;;;;;;;;;;;;;5105208;28;19920;-79
2023/09/09 05:08:03;;;;;;;;;;;;;;;;;;5102847;28;21381;-79
2023/09/09 05:10:32;;;;;;;;;;;;;;;;;;5085299;28;19912;-78
2023/09/09 05:12:58;;;;;;;;;;;;;;;;;;5091643;28;19912;-78
2023/09/09 05:15:24;;;;;;;;;;;;;;;;;;5096112;28;20003;-78
2023/09/09 05:17:50;;;;;;;;;;;;;;;;;;5102637;28;19912;-78
2023/09/09 05:20:16;;;;;;;;;;;;;;;;;;5095294;28;19912;-79
2023/09/09 05:22:42;;;;;;;;;;;;;;;;;;5089240;28;19951;-78
2023/09/09 05:25:08;;;;;;;;;;;;;;;;;;5076476;28;19916;-78
2023/09/09 05:27:34;;;;;;;;;;;;;;;;;;5083363;28;20002;-78
2023/09/09 05:30:00;;;;;;;;;;;;;;;;;;5084212;28;19912;-78
2023/09/09 05:32:26;;;;;;;;;;;;;;;;;;5066441;28;19916;-79
2023/09/09 05:34:51;;;;;;;;;;;;;;;;;;5083814;28;19999;-77
2023/09/09 05:37:17;;;;;;;;;;;;;;;;;;5094991;28;19912;-78
2023/09/09 05:39:43;;;;;;;;;;;;;;;;;;5085710;28;19999;-78
2023/09/09 05:42:09;;;;;;;;;;;;;;;;;;5102197;28;20350;-78
2023/09/09 05:44:36;;;;;;;;;;;;;;;;;;5102937;28;20339;-78
2023/09/09 05:47:02;;;;;;;;;;;;;;;;;;5102915;28;19940;-78
2023/09/09 05:49:28;;;;;;;;;;;;;;;;;;5087838;28;19955;-79
2023/09/09 05:51:54;;;;;;;;;;;;;;;;;;5103062;28;20007;-77
2023/09/09 05:54:20;;;;;;;;;;;;;;;;;;5092593;28;20654;-79
2023/09/09 05:56:46;;;;;;;;;;;;;;;;;;5085142;28;20014;-78
2023/09/09 05:59:12;;;;;;;;;;;;;;;;;;5082427;28;19919;-80
2023/09/09 06:01:38;;;;;;;;;;;;;;;;;;5098226;28;20595;-77
2023/09/09 06:04:04;;;;;;;;;;;;;;;;;;5082294;28;19919;-78
2023/09/09 06:06:29;;;;;;;;;;;;;;;;;;5081746;28;19915;-78
2023/09/09 06:08:55;;;;;;;;;;;;;;;;;;5080062;28;19999;-79
2023/09/09 06:11:21;;;;;;;;;;;;;;;;;;5064513;28;19916;-76
2023/09/09 06:13:47;;;;;;;;;;;;;;;;;;5080759;28;19912;-78
2023/09/09 06:16:13;;;;;;;;;;;;;;;;;;5085430;28;19951;-78
2023/09/09 06:18:40;;;;;;;;;;;;;;;;;;5084253;28;20006;-77
2023/09/09 06:21:05;;;;;;;;;;;;;;;;;;5081441;28;19992;-78
2023/09/09 06:23:31;;;;;;;;;;;;;;;;;;5093469;28;20011;-78
2023/09/09 06:25:57;;;;;;;;;;;;;;;;;;5077359;28;20670;-77
2023/09/09 06:28:23;;;;;;;;;;;;;;;;;;5093170;28;19916;-80
2023/09/09 06:30:49;;;;;;;;;;;;;;;;;;5084922;28;19909;-79
2023/09/09 06:33:15;;;;;;;;;;;;;;;;;;5073757;28;19958;-77
2023/09/09 06:35:41;;;;;;;;;;;;;;;;;;5067722;28;19916;-77
2023/09/09 06:38:07;;;;;;;;;;;;;;;;;;5080220;28;19913;-79
2023/09/09 06:40:33;;;;;;;;;;;;;;;;;;5065906;28;19919;-77
2023/09/09 06:42:59;;;;;;;;;;;;;;;;;;5089018;28;19921;-78
2023/09/09 06:45:25;;;;;;;;;;;;;;;;;;5081164;28;19913;-78
2023/09/09 06:47:51;;;;;;;;;;;;;;;;;;5083593;28;20275;-77
2023/09/09 06:50:16;;;;;;;;;;;;;;;;;;5090098;28;19908;-76
2023/09/09 06:52:42;;;;;;;;;;;;;;;;;;5065742;28;19933;-78
2023/09/09 06:55:08;;;;;;;;;;;;;;;;;;5107465;27;20340;-79
2023/09/09 06:57:34;;;;;;;;;;;;;;;;;;5078634;28;19920;-78
2023/09/09 07:00:00;;;;;;;;;;;;;;;;;;5093327;28;19973;-78
2023/09/09 07:02:26;;;;;;;;;;;;;;;;;;5086170;28;20294;-76
2023/09/09 07:04:52;;;;;;;;;;;;;;;;;;5083243;28;19912;-76
2023/09/09 07:07:18;;;;;;;;;;;;;;;;;;5080336;28;20023;-78
2023/09/09 07:09:44;;;;;;;;;;;;;;;;;;5080892;28;20139;-77
2023/09/09 07:12:10;;;;;;;;;;;;;;;;;;5093820;28;20662;-78
2023/09/09 07:14:36;;;;;;;;;;;;;;;;;;5089558;28;20016;-78
2023/09/09 07:17:03;;;;;;;;;;;;;;;;;;5083688;28;19912;-77
2023/09/09 07:19:29;;;;;;;;;;;;;;;;;;5081414;28;19927;-78
2023/09/09 07:21:55;;;;;;;;;;;;;;;;;;5088099;28;19947;-79
2023/09/09 07:24:21;;;;;;;;;;;;;;;;;;5090598;28;20321;-80
2023/09/09 07:26:47;;;;;;;;;;;;;;;;;;5076637;28;20354;-78
2023/09/09 07:29:13;;;;;;;;;;;;;;;;;;5079176;28;19932;-76
2023/09/09 07:31:39;;;;;;;;;;;;;;;;;;5099156;27;19908;-77
2023/09/09 07:34:05;;;;;;;;;;;;;;;;;;5085173;28;19923;-77
2023/09/09 07:36:31;;;;;;;;;;;;;;;;;;5100713;28;19931;-75
2023/09/09 07:38:57;;;;;;;;;;;;;;;;;;5077940;28;20036;-77
2023/09/09 07:41:23;;;;;;;;;;;;;;;;;;5074292;28;20012;-78
2023/09/09 07:43:49;;;;;;;;;;;;;;;;;;5091132;28;19991;-77
2023/09/09 07:46:15;;;;;;;;;;;;;;;;;;5094239;28;19980;-77
2023/09/09 07:48:41;;;;;;;;;;;;;;;;;;5103582;27;19912;-78
2023/09/09 07:51:07;;;;;;;;;;;;;;;;;;5065304;28;20062;-77
2023/09/09 07:53:33;;;;;;;;;;;;;;;;;;5074552;28;20036;-77
2023/09/09 07:55:59;;;;;;;;;;;;;;;;;;5076494;28;20411;-77
2023/09/09 07:58:25;;;;;;;;;;;;;;;;;;5076034;28;20332;-77
2023/09/09 08:00:51;;;;;;;;;;;;;;;;;;5079461;28;19970;-77
2023/09/09 08:03:17;;;;;;;;;;;;;;;;;;5093295;28;19916;-80
2023/09/09 08:05:43;;;;;;;;;;;;;;;;;;5098453;27;20367;-78
2023/09/09 08:08:10;;;;;;;;;;;;;;;;;;5081542;28;19926;-78
2023/09/09 08:10:36;;;;;;;;;;;;;;;;;;5081505;28;19998;-79
2023/09/09 08:13:02;;;;;;;;;;;;;;;;;;5076919;28;20018;-79
2023/09/09 08:15:28;;;;;;;;;;;;;;;;;;5081893;28;20013;-79
2023/09/09 08:17:53;;;;;;;;;;;;;;;;;;5087723;28;20044;-79
2023/09/09 08:20:19;;;;;;;;;;;;;;;;;;5094810;28;19981;-79
2023/09/09 08:22:45;;;;;;;;;;;;;;;;;;5077754;28;20065;-78
2023/09/09 08:25:14;;;;;;;;;;;;;;;;;;5082081;28;20702;-77
2023/09/09 08:27:40;;;;;;;;;;;;;;;;;;5082109;28;19912;-78
2023/09/09 08:30:06;;;;;;;;;;;;;;;;;;5095833;28;19934;-79
2023/09/09 08:32:33;;;;;;;;;;;;;;;;;;5093602;28;19916;-79
2023/09/09 08:34:59;;;;;;;;;;;;;;;;;;5082798;28;19923;-79
2023/09/09 08:37:25;;;;;;;;;;;;;;;;;;5093720;28;19960;-80
2023/09/09 08:39:51;;;;;;;;;;;;;;;;;;5079328;28;21575;-78
2023/09/09 08:42:17;;;;;;;;;;;;;;;;;;5072398;28;19986;-79
2023/09/09 08:44:44;;;;;;;;;;;;;;;;;;5083337;28;21931;-79
2023/09/09 08:47:10;;;;;;;;;;;;;;;;;;5098996;28;19916;-79
2023/09/09 08:49:36;;;;;;;;;;;;;;;;;;5070500;28;19920;-78
2023/09/09 08:52:02;;;;;;;;;;;;;;;;;;5076201;28;19912;-80
2023/09/09 08:54:28;;;;;;;;;;;;;;;;;;5090158;28;20264;-77
2023/09/09 08:56:54;;;;;;;;;;;;;;;;;;5080894;28;19936;-78
2023/09/09 08:59:20;;;;;;;;;;;;;;;;;;5081224;28;19924;-78
2023/09/09 09:01:46;;;;;;;;;;;;;;;;;;5078061;28;19935;-79
2023/09/09 09:04:12;;;;;;;;;;;;;;;;;;5088377;28;19910;-80
2023/09/09 09:06:38;;;;;;;;;;;;;;;;;;5077679;28;20295;-83
2023/09/09 09:09:04;;;;;;;;;;;;;;;;;;5094447;28;19958;-82
2023/09/09 09:11:30;;;;;;;;;;;;;;;;;;5089615;28;19916;-81
2023/09/09 09:13:56;;;;;;;;;;;;;;;;;;5089138;28;20236;-80
2023/09/09 09:16:22;;;;;;;;;;;;;;;;;;5071753;28;19915;-81
2023/09/09 09:18:48;;;;;;;;;;;;;;;;;;5078453;28;19922;-80
2023/09/09 09:21:14;;;;;;;;;;;;;;;;;;5077555;28;20017;-80
2023/09/09 09:23:40;;;;;;;;;;;;;;;;;;5075266;28;19923;-80
2023/09/09 09:26:06;;;;;;;;;;;;;;;;;;5078327;28;19927;-81
2023/09/09 09:28:32;;;;;;;;;;;;;;;;;;5097457;28;20065;-81
2023/09/09 09:30:58;;;;;;;;;;;;;;;;;;5083436;28;20355;-81
2023/09/09 09:33:27;;;;;;;;;;;;;;;;;;5084215;28;20363;-82
2023/09/09 09:35:53;;;;;;;;;;;;;;;;;;5075056;28;19920;-81
2023/09/09 09:38:19;;;;;;;;;;;;;;;;;;5092438;28;19935;-81
2023/09/09 09:40:45;;;;;;;;;;;;;;;;;;5081705;28;19926;-84
2023/09/09 09:43:11;;;;;;;;;;;;;;;;;;5077535;28;19949;-80
2023/09/09 09:45:37;;;;;;;;;;;;;;;;;;5091663;28;20669;-81
2023/09/09 09:48:03;;;;;;;;;;;;;;;;;;5081135;28;19928;-82
2023/09/09 09:50:30;;;;;;;;;;;;;;;;;;5107154;27;19995;-80
2023/09/09 09:52:59;;;;;;;;;;;;;;;;;;5083408;28;19919;-80
2023/09/09 09:55:25;;;;;;;;;;;;;;;;;;5094754;28;19912;-81
2023/09/09 09:57:51;;;;;;;;;;;;;;;;;;5077331;28;19922;-81
2023/09/09 10:00:17;;;;;;;;;;;;;;;;;;5100464;28;20008;-80
2023/09/09 10:02:43;;;;;;;;;;;;;;;;;;5082057;28;19989;-81
2023/09/09 10:05:09;;;;;;;;;;;;;;;;;;5098979;28;20331;-84
2023/09/09 10:07:35;;;;;;;;;;;;;;;;;;5087982;28;19912;-80
2023/09/09 10:10:01;;;;;;;;;;;;;;;;;;5083941;28;19923;-81
2023/09/09 10:12:26;;;;;;;;;;;;;;;;;;5098244;28;19923;-81
2023/09/09 10:14:52;;;;;;;;;;;;;;;;;;5081916;28;19955;-80
2023/09/09 10:17:18;;;;;;;;;;;;;;;;;;5098176;28;19924;-80
2023/09/09 10:19:44;;;;;;;;;;;;;;;;;;5092951;28;19913;-79
2023/09/09 10:22:10;;;;;;;;;;;;;;;;;;5091790;28;20626;-79
2023/09/09 10:24:36;;;;;;;;;;;;;;;;;;5100084;28;19912;-79
2023/09/09 10:27:02;;;;;;;;;;;;;;;;;;5081938;28;19912;-81
2023/09/09 10:29:28;;;;;;;;;;;;;;;;;;5083606;28;20446;-82
2023/09/09 10:31:54;;;;;;;;;;;;;;;;;;5084473;28;20611;-79
2023/09/09 10:34:19;;;;;;;;;;;;;;;;;;5078052;28;20006;-80
2023/09/09 10:36:45;;;;;;;;;;;;;;;;;;5076537;28;20417;-81
2023/09/09 10:39:11;;;;;;;;;;;;;;;;;;5095615;28;19912;-81
2023/09/09 10:41:37;;;;;;;;;;;;;;;;;;5095209;28;19955;-81
2023/09/09 10:44:03;;;;;;;;;;;;;;;;;;5097880;28;19924;-82
2023/09/09 10:46:29;;;;;;;;;;;;;;;;;;5089677;28;19932;-80
2023/09/09 10:48:55;;;;;;;;;;;;;;;;;;5100119;28;19915;-78
2023/09/09 10:51:21;;;;;;;;;;;;;;;;;;5078114;28;19913;-78
2023/09/09 10:53:47;;;;;;;;;;;;;;;;;;5081294;28;19912;-77
2023/09/09 10:56:12;;;;;;;;;;;;;;;;;;5086334;28;19970;-78
2023/09/09 10:58:38;;;;;;;;;;;;;;;;;;5094492;28;20248;-78
2023/09/09 11:01:04;;;;;;;;;;;;;;;;;;5101356;27;19916;-78
2023/09/09 11:03:30;;;;;;;;;;;;;;;;;;5088170;28;20440;-77
2023/09/09 11:05:56;;;;;;;;;;;;;;;;;;5071966;28;19977;-77
2023/09/09 11:08:22;;;;;;;;;;;;;;;;;;5091601;28;19970;-77
2023/09/09 11:10:48;;;;;;;;;;;;;;;;;;5075441;28;20360;-77
2023/09/09 11:13:14;;;;;;;;;;;;;;;;;;5072882;28;19917;-76
2023/09/09 11:15:40;;;;;;;;;;;;;;;;;;5095643;28;20343;-77
2023/09/09 11:18:06;;;;;;;;;;;;;;;;;;5074668;28;20081;-78
2023/09/09 11:20:31;;;;;;;;;;;;;;;;;;5076151;28;19912;-76
2023/09/09 11:22:57;;;;;;;;;;;;;;;;;;5072248;28;19916;-75
2023/09/09 11:25:23;;;;;;;;;;;;;;;;;;5082248;28;20011;-76
2023/09/09 11:27:49;;;;;;;;;;;;;;;;;;5074547;28;19997;-75
2023/09/09 11:30:15;;;;;;;;;;;;;;;;;;5090609;28;19924;-79
2023/09/09 11:32:41;;;;;;;;;;;;;;;;;;5081708;28;19943;-76
2023/09/09 11:35:09;;;;;;;;;;;;;;;;;;5079862;28;19920;-78
2023/09/09 11:37:35;;;;;;;;;;;;;;;;;;5064332;28;19913;-78
2023/09/09 11:40:00;;;;;;;;;;;;;;;;;;5087848;28;19919;-77
2023/09/09 11:42:26;;;;;;;;;;;;;;;;;;5086913;28;20378;-77
2023/09/09 11:44:52;;;;;;;;;;;;;;;;;;5084010;28;19916;-79
2023/09/09 11:47:18;;;;;;;;;;;;;;;;;;5076240;28;19927;-77
2023/09/09 11:49:44;;;;;;;;;;;;;;;;;;5097380;28;20053;-76
2023/09/09 11:52:10;;;;;;;;;;;;;;;;;;5065032;28;19912;-78
2023/09/09 11:54:36;;;;;;;;;;;;;;;;;;5068733;28;19958;-77
2023/09/09 11:57:02;;;;;;;;;;;;;;;;;;5083662;28;20339;-77
2023/09/09 11:59:28;;;;;;;;;;;;;;;;;;5090129;28;20003;-78
2023/09/09 12:01:54;;;;;;;;;;;;;;;;;;5097526;28;19935;-78
2023/09/09 12:04:19;;;;;;;;;;;;;;;;;;5087666;28;19919;-78
2023/09/09 12:06:45;;;;;;;;;;;;;;;;;;5063552;28;19908;-77
2023/09/09 12:09:11;;;;;;;;;;;;;;;;;;5089591;28;20398;-78
2023/09/09 12:11:37;;;;;;;;;;;;;;;;;;5077243;28;20011;-78
2023/09/09 12:14:03;;;;;;;;;;;;;;;;;;5086999;28;19912;-77
2023/09/09 12:16:30;;;;;;;;;;;;;;;;;;5072808;28;19921;-78
2023/09/09 12:18:55;;;;;;;;;;;;;;;;;;5071615;28;19942;-77
2023/09/09 12:21:23;;;;;;;;;;;;;;;;;;5068418;28;19934;-78
2023/09/09 12:23:49;;;;;;;;;;;;;;;;;;5082175;28;19927;-78
2023/09/09 12:26:15;;;;;;;;;;;;;;;;;;5079534;28;19908;-79
2023/09/09 12:28:41;;;;;;;;;;;;;;;;;;5076893;28;19909;-78
2023/09/09 12:31:07;;;;;;;;;;;;;;;;;;5080954;28;19913;-78
2023/09/09 12:33:33;;;;;;;;;;;;;;;;;;5089417;28;20003;-79
2023/09/09 12:35:59;;;;;;;;;;;;;;;;;;5084500;28;19912;-77
2023/09/09 12:38:25;;;;;;;;;;;;;;;;;;5069642;28;20339;-79
2023/09/09 12:40:50;;;;;;;;;;;;;;;;;;5083471;28;19963;-77
2023/09/09 12:43:16;;;;;;;;;;;;;;;;;;5086483;28;19920;-78
2023/09/09 12:45:42;;;;;;;;;;;;;;;;;;5082533;28;20502;-78
2023/09/09 12:48:09;;;;;;;;;;;;;;;;;;5084590;28;20009;-76
2023/09/09 12:50:35;;;;;;;;;;;;;;;;;;5068882;28;19913;-76
2023/09/09 12:53:01;;;;;;;;;;;;;;;;;;5065473;28;19935;-78
2023/09/09 12:55:27;;;;;;;;;;;;;;;;;;5088202;28;20296;-76
2023/09/09 12:57:53;;;;;;;;;;;;;;;;;;5095295;28;19916;-79
2023/09/09 13:00:18;;;;;;;;;;;;;;;;;;5098039;28;19970;-77
2023/09/09 13:02:44;;;;;;;;;;;;;;;;;;5076334;28;19966;-79
2023/09/09 13:05:10;;;;;;;;;;;;;;;;;;5073329;28;19919;-79
2023/09/09 13:07:36;;;;;;;;;;;;;;;;;;5084367;28;19978;-77
2023/09/09 13:10:02;;;;;;;;;;;;;;;;;;5080034;28;19923;-78
2023/09/09 13:12:28;;;;;;;;;;;;;;;;;;5082645;28;20261;-77
2023/09/09 13:14:56;;;;;;;;;;;;;;;;;;5084481;28;19916;-78
2023/09/09 13:17:22;;;;;;;;;;;;;;;;;;5070404;28;19996;-78
2023/09/09 13:19:48;;;;;;;;;;;;;;;;;;5074157;28;19917;-78
2023/09/09 13:22:14;;;;;;;;;;;;;;;;;;5078487;28;19981;-75
2023/09/09 13:24:39;;;;;;;;;;;;;;;;;;5102766;28;19909;-76
2023/09/09 13:27:05;;;;;;;;;;;;;;;;;;5095450;28;20378;-78
2023/09/09 13:29:31;;;;;;;;;;;;;;;;;;5089151;28;19982;-79
2023/09/09 13:31:57;;;;;;;;;;;;;;;;;;5076955;28;19913;-77
2023/09/09 13:34:23;;;;;;;;;;;;;;;;;;5089337;28;19988;-78
2023/09/09 13:36:49;;;;;;;;;;;;;;;;;;5096664;28;19908;-78
2023/09/09 13:39:15;;;;;;;;;;;;;;;;;;5080352;28;19912;-77
2023/09/09 13:41:41;;;;;;;;;;;;;;;;;;5087210;28;19952;-77
2023/09/09 13:44:06;;;;;;;;;;;;;;;;;;5080757;28;19927;-78
2023/09/09 13:46:32;;;;;;;;;;;;;;;;;;5096152;28;19974;-78
2023/09/09 13:48:58;;;;;;;;;;;;;;;;;;5091914;28;19923;-79
2023/09/09 13:51:25;;;;;;;;;;;;;;;;;;5073950;28;19932;-78
2023/09/09 13:53:51;;;;;;;;;;;;;;;;;;5072972;28;20003;-79
2023/09/09 13:56:17;;;;;;;;;;;;;;;;;;5069473;28;20015;-78
2023/09/09 13:58:42;;;;;;;;;;;;;;;;;;5081380;28;19981;-79
2023/09/09 14:01:08;;;;;;;;;;;;;;;;;;5102623;28;20018;-79
2023/09/09 14:03:34;;;;;;;;;;;;;;;;;;5089970;28;19950;-77
2023/09/09 14:06:00;;;;;;;;;;;;;;;;;;5083210;28;19912;-79
2023/09/09 14:08:26;;;;;;;;;;;;;;;;;;5087741;28;19994;-79
2023/09/09 14:10:52;;;;;;;;;;;;;;;;;;5095819;28;19973;-79
2023/09/09 14:13:18;;;;;;;;;;;;;;;;;;5090208;28;20014;-79
2023/09/09 14:15:44;;;;;;;;;;;;;;;;;;5094979;28;19917;-79
2023/09/09 14:18:09;;;;;;;;;;;;;;;;;;5076222;28;19912;-78
2023/09/09 14:20:35;;;;;;;;;;;;;;;;;;5086697;28;20428;-78
2023/09/09 14:23:01;;;;;;;;;;;;;;;;;;5077189;28;19975;-80
2023/09/09 14:25:27;;;;;;;;;;;;;;;;;;5094977;28;19912;-77
2023/09/09 14:27:53;;;;;;;;;;;;;;;;;;5084502;28;20253;-79
2023/09/09 14:30:19;;;;;;;;;;;;;;;;;;5073651;28;19916;-78
2023/09/09 14:32:45;;;;;;;;;;;;;;;;;;5089631;28;20419;-78
2023/09/09 14:35:11;;;;;;;;;;;;;;;;;;5075048;28;19913;-79
2023/09/09 14:37:37;;;;;;;;;;;;;;;;;;5097259;28;20801;-79
2023/09/09 14:40:03;;;;;;;;;;;;;;;;;;5096955;28;19919;-78
2023/09/09 14:42:29;;;;;;;;;;;;;;;;;;5080629;28;19947;-78
2023/09/09 14:44:55;;;;;;;;;;;;;;;;;;5077892;28;19912;-79
2023/09/09 14:47:20;;;;;;;;;;;;;;;;;;5072508;28;20423;-79
2023/09/09 14:49:46;;;;;;;;;;;;;;;;;;5080430;28;20014;-79
2023/09/09 14:52:12;;;;;;;;;;;;;;;;;;5077145;28;19964;-78
2023/09/09 14:54:38;;;;;;;;;;;;;;;;;;5084994;28;19912;-78
2023/09/09 14:57:04;;;;;;;;;;;;;;;;;;5084816;28;20005;-79
2023/09/09 14:59:30;;;;;;;;;;;;;;;;;;5084655;28;19931;-78
2023/09/09 15:01:56;;;;;;;;;;;;;;;;;;5092285;28;19932;-78
2023/09/09 15:04:22;;;;;;;;;;;;;;;;;;5084934;28;19908;-77
2023/09/09 15:06:48;;;;;;;;;;;;;;;;;;5069257;28;19917;-80
2023/09/09 15:09:14;;;;;;;;;;;;;;;;;;5090473;28;19916;-78
2023/09/09 15:11:40;;;;;;;;;;;;;;;;;;5065464;28;20005;-77
2023/09/09 15:14:06;;;;;;;;;;;;;;;;;;5087736;28;20384;-75
2023/09/09 15:16:32;;;;;;;;;;;;;;;;;;5090049;28;19989;-77
2023/09/09 15:18:58;;;;;;;;;;;;;;;;;;5093786;28;19916;-78
2023/09/09 15:21:23;;;;;;;;;;;;;;;;;;5085587;28;19923;-77
2023/09/09 15:23:49;;;;;;;;;;;;;;;;;;5076845;28;20098;-76
2023/09/09 15:26:15;;;;;;;;;;;;;;;;;;5102116;28;20325;-76
2023/09/09 15:28:41;;;;;;;;;;;;;;;;;;5073278;28;19912;-78
2023/09/09 15:31:07;;;;;;;;;;;;;;;;;;5077883;28;19935;-77
2023/09/09 15:33:33;;;;;;;;;;;;;;;;;;5100510;28;19909;-75
2023/09/09 15:35:59;;;;;;;;;;;;;;;;;;5085260;28;20021;-79
2023/09/09 15:38:25;;;;;;;;;;;;;;;;;;5083512;28;19987;-78
2023/09/09 15:40:51;;;;;;;;;;;;;;;;;;5075554;28;19977;-78
2023/09/09 15:43:16;;;;;;;;;;;;;;;;;;5067264;28;19927;-79
2023/09/09 15:45:42;;;;;;;;;;;;;;;;;;5078770;28;19990;-77
2023/09/09 15:48:08;;;;;;;;;;;;;;;;;;5089085;28;20296;-78
2023/09/09 15:50:34;;;;;;;;;;;;;;;;;;5088146;28;19923;-76
2023/09/09 15:53:00;;;;;;;;;;;;;;;;;;5074638;28;19912;-77
2023/09/09 15:55:26;;;;;;;;;;;;;;;;;;5086142;28;20325;-78
2023/09/09 15:57:52;;;;;;;;;;;;;;;;;;5082224;28;19912;-77
2023/09/09 16:00:18;;;;;;;;;;;;;;;;;;5099168;28;20062;-77
2023/09/09 16:02:44;;;;;;;;;;;;;;;;;;5076035;28;19919;-76
2023/09/09 16:05:10;;;;;;;;;;;;;;;;;;5082012;28;19923;-77
2023/09/09 16:07:37;;;;;;;;;;;;;;;;;;5100535;28;19912;-77
2023/09/09 16:10:03;;;;;;;;;;;;;;;;;;5085519;28;20236;-75
2023/09/09 16:12:29;;;;;;;;;;;;;;;;;;5080083;28;19916;-76
2023/09/09 16:14:55;;;;;;;;;;;;;;;;;;5089546;28;20280;-77
2023/09/09 16:17:23;;;;;;;;;;;;;;;;;;5064589;28;19912;-78
2023/09/09 16:19:49;;;;;;;;;;;;;;;;;;5088331;28;20015;-79
2023/09/09 16:22:16;;;;;;;;;;;;;;;;;;5100515;27;19923;-76
2023/09/09 16:24:42;;;;;;;;;;;;;;;;;;5077413;28;20013;-78
2023/09/09 16:27:08;;;;;;;;;;;;;;;;;;5085566;28;20280;-79
2023/09/09 16:29:34;;;;;;;;;;;;;;;;;;5077923;28;19924;-80
2023/09/09 16:32:00;;;;;;;;;;;;;;;;;;5097900;27;19960;-79
2023/09/09 16:34:26;;;;;;;;;;;;;;;;;;5077858;28;20236;-81
2023/09/09 16:36:52;;;;;;;;;;;;;;;;;;5073132;28;19927;-79